sensor_id;sensor_type;location;lat;lon;timestamp;pressure;altitude;pressure_sealevel;temperature;humidity
78990;BME280;68390;52.130;21.218;2024-03-02T00:02:24;100279.69;;;6.00;100.00
78990;BME280;68390;52.130;21.218;2024-03-02T00:04:50;100279.94;;;5.97;100.00
78990;BME280;68390;52.130;21.218;2024-03-02T00:07:17;100280.97;;;5.96;100.00
78990;BME280;68390;52.130;21.218;2024-03-02T00:09:42;100277.50;;;5.94;100.00
78990;BME280;68390;52.130;21.218;2024-03-02T00:12:10;100272.38;;;5.91;100.00
78990;BME280;68390;52.130;21.218;2024-03-02T00:14:37;100265.19;;;5.89;100.00
78990;BME280;68390;52.130;21.218;2024-03-02T00:17:02;100264.44;;;5.87;100.00
78990;BME280;68390;52.130;21.218;2024-03-02T00:19:28;100269.03;;;5.87;100.00
78990;BME280;68390;52.130;21.218;2024-03-02T00:21:54;100267.44;;;5.84;100.00
78990;BME280;68390;52.130;21.218;2024-03-02T00:26:45;100269.75;;;5.79;100.00
78990;BME280;68390;52.130;21.218;2024-03-02T00:29:17;100265.84;;;5.72;100.00
78990;BME280;68390;52.130;21.218;2024-03-02T00:31:44;100261.13;;;5.74;100.00
78990;BME280;68390;52.130;21.218;2024-03-02T00:34:12;100267.72;;;5.72;100.00
78990;BME280;68390;52.130;21.218;2024-03-02T00:36:38;100258.00;;;5.69;100.00
78990;BME280;68390;52.130;21.218;2024-03-02T00:39:04;100266.56;;;5.65;100.00
78990;BME280;68390;52.130;21.218;2024-03-02T00:41:33;100255.81;;;5.63;100.00
78990;BME280;68390;52.130;21.218;2024-03-02T00:44:06;100267.72;;;5.62;100.00
78990;BME280;68390;52.130;21.218;2024-03-02T00:46:36;100267.72;;;5.62;100.00
78990;BME280;68390;52.130;21.218;2024-03-02T00:49:11;100261.41;;;5.62;100.00
78990;BME280;68390;52.130;21.218;2024-03-02T00:51:37;100268.88;;;5.60;100.00
78990;BME280;68390;52.130;21.218;2024-03-02T00:54:04;100271.75;;;5.58;100.00
78990;BME280;68390;52.130;21.218;2024-03-02T00:56:32;100261.25;;;5.53;100.00
78990;BME280;68390;52.130;21.218;2024-03-02T00:58:58;100271.00;;;5.56;100.00
78990;BME280;68390;52.130;21.218;2024-03-02T01:01:23;100263.84;;;5.55;100.00
78990;BME280;68390;52.130;21.218;2024-03-02T01:03:49;100261.41;;;5.52;100.00
78990;BME280;68390;52.130;21.218;2024-03-02T01:06:16;100254.22;;;5.51;100.00
78990;BME280;68390;52.130;21.218;2024-03-02T01:08:42;100252.38;;;5.51;100.00
78990;BME280;68390;52.130;21.218;2024-03-02T01:11:08;100254.53;;;5.48;100.00
78990;BME280;68390;52.130;21.218;2024-03-02T01:13:33;100244.50;;;5.48;100.00
78990;BME280;68390;52.130;21.218;2024-03-02T01:15:59;100252.66;;;5.48;100.00
78990;BME280;68390;52.130;21.218;2024-03-02T01:18:25;100259.97;;;5.48;100.00
78990;BME280;68390;52.130;21.218;2024-03-02T01:20:50;100254.66;;;5.46;100.00
78990;BME280;68390;52.130;21.218;2024-03-02T01:23:24;100260.25;;;5.45;100.00
78990;BME280;68390;52.130;21.218;2024-03-02T01:25:50;100251.34;;;5.43;100.00
78990;BME280;68390;52.130;21.218;2024-03-02T01:28:17;100244.50;;;5.39;100.00
78990;BME280;68390;52.130;21.218;2024-03-02T01:30:42;100255.38;;;5.39;100.00
78990;BME280;68390;52.130;21.218;2024-03-02T01:33:08;100251.94;;;5.37;100.00
78990;BME280;68390;52.130;21.218;2024-03-02T01:35:34;100246.75;;;5.34;100.00
78990;BME280;68390;52.130;21.218;2024-03-02T01:38:03;100247.63;;;5.34;100.00
78990;BME280;68390;52.130;21.218;2024-03-02T01:40:28;100250.47;;;5.33;100.00
78990;BME280;68390;52.130;21.218;2024-03-02T01:42:55;100251.47;;;5.32;100.00
78990;BME280;68390;52.130;21.218;2024-03-02T01:45:21;100241.59;;;5.31;100.00
78990;BME280;68390;52.130;21.218;2024-03-02T01:47:47;100239.84;;;5.30;100.00
78990;BME280;68390;52.130;21.218;2024-03-02T01:50:13;100241.03;;;5.27;100.00
78990;BME280;68390;52.130;21.218;2024-03-02T01:52:39;100240.03;;;5.28;100.00
78990;BME280;68390;52.130;21.218;2024-03-02T01:55:05;100241.16;;;5.26;100.00
78990;BME280;68390;52.130;21.218;2024-03-02T01:57:34;100243.16;;;5.24;100.00
78990;BME280;68390;52.130;21.218;2024-03-02T02:00:00;100227.41;;;5.18;100.00
78990;BME280;68390;52.130;21.218;2024-03-02T02:02:25;100231.84;;;5.19;100.00
78990;BME280;68390;52.130;21.218;2024-03-02T02:04:51;100218.63;;;5.14;100.00
78990;BME280;68390;52.130;21.218;2024-03-02T02:07:16;100233.84;;;5.16;100.00
78990;BME280;68390;52.130;21.218;2024-03-02T02:09:42;100235.84;;;5.14;100.00
78990;BME280;68390;52.130;21.218;2024-03-02T02:12:09;100233.97;;;5.15;100.00
78990;BME280;68390;52.130;21.218;2024-03-02T02:14:35;100229.66;;;5.12;100.00
78990;BME280;68390;52.130;21.218;2024-03-02T02:17:01;100232.38;;;5.12;100.00
78990;BME280;68390;52.130;21.218;2024-03-02T02:19:27;100230.97;;;5.08;100.00
78990;BME280;68390;52.130;21.218;2024-03-02T02:21:52;100226.53;;;5.07;100.00
78990;BME280;68390;52.130;21.218;2024-03-02T02:24:18;100227.38;;;5.08;100.00
78990;BME280;68390;52.130;21.218;2024-03-02T02:26:43;100219.75;;;5.02;100.00
78990;BME280;68390;52.130;21.218;2024-03-02T02:29:09;100218.91;;;5.01;100.00
78990;BME280;68390;52.130;21.218;2024-03-02T02:31:38;100218.16;;;4.99;100.00
78990;BME280;68390;52.130;21.218;2024-03-02T02:34:04;100214.75;;;4.97;100.00
78990;BME280;68390;52.130;21.218;2024-03-02T02:36:30;100208.84;;;4.92;100.00
78990;BME280;68390;52.130;21.218;2024-03-02T02:38:56;100217.88;;;4.93;100.00
78990;BME280;68390;52.130;21.218;2024-03-02T02:41:21;100211.84;;;4.89;100.00
78990;BME280;68390;52.130;21.218;2024-03-02T02:43:47;100212.00;;;4.88;100.00
78990;BME280;68390;52.130;21.218;2024-03-02T02:46:13;100216.00;;;4.84;100.00
78990;BME280;68390;52.130;21.218;2024-03-02T02:48:38;100208.97;;;4.81;100.00
78990;BME280;68390;52.130;21.218;2024-03-02T02:51:04;100211.81;;;4.79;100.00
78990;BME280;68390;52.130;21.218;2024-03-02T02:53:29;100214.66;;;4.78;100.00
78990;BME280;68390;52.130;21.218;2024-03-02T02:55:54;100217.69;;;4.75;100.00
78990;BME280;68390;52.130;21.218;2024-03-02T02:58:20;100221.66;;;4.71;100.00
78990;BME280;68390;52.130;21.218;2024-03-02T03:00:45;100214.81;;;4.67;100.00
78990;BME280;68390;52.130;21.218;2024-03-02T03:03:31;100213.06;;;4.66;100.00
78990;BME280;68390;52.130;21.218;2024-03-02T03:05:56;100199.00;;;4.61;100.00
78990;BME280;68390;52.130;21.218;2024-03-02T03:08:22;100203.84;;;4.57;100.00
78990;BME280;68390;52.130;21.218;2024-03-02T03:10:49;100205.16;;;4.53;100.00
78990;BME280;68390;52.130;21.218;2024-03-02T03:13:14;100203.56;;;4.51;100.00
78990;BME280;68390;52.130;21.218;2024-03-02T03:15:40;100207.25;;;4.50;100.00
78990;BME280;68390;52.130;21.218;2024-03-02T03:18:06;100206.41;;;4.49;100.00
78990;BME280;68390;52.130;21.218;2024-03-02T03:20:33;100195.66;;;4.48;100.00
78990;BME280;68390;52.130;21.218;2024-03-02T03:22:59;100203.13;;;4.46;100.00
78990;BME280;68390;52.130;21.218;2024-03-02T03:25:25;100201.38;;;4.45;100.00
78990;BME280;68390;52.130;21.218;2024-03-02T03:27:51;100199.06;;;4.40;100.00
78990;BME280;68390;52.130;21.218;2024-03-02T03:30:19;100209.06;;;4.39;100.00
78990;BME280;68390;52.130;21.218;2024-03-02T03:32:44;100205.78;;;4.36;100.00
78990;BME280;68390;52.130;21.218;2024-03-02T03:35:10;100212.06;;;4.36;100.00
78990;BME280;68390;52.130;21.218;2024-03-02T03:37:37;100206.78;;;4.35;100.00
78990;BME280;68390;52.130;21.218;2024-03-02T03:40:03;100200.47;;;4.34;100.00
78990;BME280;68390;52.130;21.218;2024-03-02T03:42:38;100205.91;;;4.34;100.00
78990;BME280;68390;52.130;21.218;2024-03-02T03:45:04;100207.78;;;4.34;100.00
78990;BME280;68390;52.130;21.218;2024-03-02T03:47:33;100212.22;;;4.35;100.00
78990;BME280;68390;52.130;21.218;2024-03-02T03:49:58;100202.34;;;4.34;100.00
78990;BME280;68390;52.130;21.218;2024-03-02T03:52:24;100204.94;;;4.35;100.00
78990;BME280;68390;52.130;21.218;2024-03-02T03:54:49;100202.22;;;4.35;100.00
78990;BME280;68390;52.130;21.218;2024-03-02T03:57:15;100204.94;;;4.35;100.00
78990;BME280;68390;52.130;21.218;2024-03-02T03:59:41;100206.91;;;4.33;100.00
78990;BME280;68390;52.130;21.218;2024-03-02T04:02:07;100205.19;;;4.32;100.00
78990;BME280;68390;52.130;21.218;2024-03-02T04:04:33;100207.91;;;4.32;100.00
78990;BME280;68390;52.130;21.218;2024-03-02T04:06:59;100206.19;;;4.31;100.00
78990;BME280;68390;52.130;21.218;2024-03-02T04:09:24;100213.59;;;4.29;100.00
78990;BME280;68390;52.130;21.218;2024-03-02T04:11:50;100203.72;;;4.28;100.00
78990;BME280;68390;52.130;21.218;2024-03-02T04:14:16;100207.19;;;4.30;100.00
78990;BME280;68390;52.130;21.218;2024-03-02T04:16:42;100205.44;;;4.29;100.00
78990;BME280;68390;52.130;21.218;2024-03-02T04:19:07;100205.44;;;4.29;100.00
78990;BME280;68390;52.130;21.218;2024-03-02T04:21:33;100214.47;;;4.30;100.00
78990;BME280;68390;52.130;21.218;2024-03-02T04:23:58;100206.31;;;4.30;100.00
78990;BME280;68390;52.130;21.218;2024-03-02T04:26:25;100208.91;;;4.31;100.00
78990;BME280;68390;52.130;21.218;2024-03-02T04:28:51;100208.63;;;4.34;100.00
78990;BME280;68390;52.130;21.218;2024-03-02T04:31:16;100211.34;;;4.34;100.00
78990;BME280;68390;52.130;21.218;2024-03-02T04:33:42;100208.34;;;4.37;100.00
78990;BME280;68390;52.130;21.218;2024-03-02T04:36:08;100190.31;;;4.36;100.00
78990;BME280;68390;52.130;21.218;2024-03-02T04:38:35;100194.75;;;4.37;100.00
78990;BME280;68390;52.130;21.218;2024-03-02T04:41:00;100194.75;;;4.37;100.00
78990;BME280;68390;52.130;21.218;2024-03-02T04:43:26;100202.91;;;4.37;100.00
78990;BME280;68390;52.130;21.218;2024-03-02T04:45:51;100196.22;;;4.41;100.00
78990;BME280;68390;52.130;21.218;2024-03-02T04:48:17;100189.31;;;4.37;100.00
78990;BME280;68390;52.130;21.218;2024-03-02T04:50:42;100192.63;;;4.41;100.00
78990;BME280;68390;52.130;21.218;2024-03-02T04:53:08;100188.19;;;4.40;100.00
78990;BME280;68390;52.130;21.218;2024-03-02T04:55:33;100189.78;;;4.42;100.00
78990;BME280;68390;52.130;21.218;2024-03-02T04:58:04;100190.78;;;4.41;100.00
78990;BME280;68390;52.130;21.218;2024-03-02T05:00:30;100177.91;;;4.43;100.00
78990;BME280;68390;52.130;21.218;2024-03-02T05:02:56;100185.94;;;4.45;100.00
78990;BME280;68390;52.130;21.218;2024-03-02T05:05:21;100199.38;;;4.47;100.00
78990;BME280;68390;52.130;21.218;2024-03-02T05:07:47;100192.94;;;4.48;100.00
78990;BME280;68390;52.130;21.218;2024-03-02T05:10:12;100196.38;;;4.50;100.00
78990;BME280;68390;52.130;21.218;2024-03-02T05:12:38;100205.16;;;4.53;100.00
78990;BME280;68390;52.130;21.218;2024-03-02T05:15:10;100215.88;;;4.55;100.00
78990;BME280;68390;52.130;21.218;2024-03-02T05:17:37;100203.03;;;4.57;100.00
78990;BME280;68390;52.130;21.218;2024-03-02T05:20:06;100208.16;;;4.60;100.00
78990;BME280;68390;52.130;21.218;2024-03-02T05:22:33;100215.31;;;4.61;100.00
78990;BME280;68390;52.130;21.218;2024-03-02T05:24:59;100221.63;;;4.61;100.00
78990;BME280;68390;52.130;21.218;2024-03-02T05:27:26;100218.78;;;4.63;100.00
78990;BME280;68390;52.130;21.218;2024-03-02T05:29:52;100221.94;;;4.68;100.00
78990;BME280;68390;52.130;21.218;2024-03-02T05:32:17;100212.78;;;4.69;100.00
78990;BME280;68390;52.130;21.218;2024-03-02T05:34:43;100214.50;;;4.70;100.00
78990;BME280;68390;52.130;21.218;2024-03-02T05:37:08;100219.69;;;4.73;100.00
78990;BME280;68390;52.130;21.218;2024-03-02T05:39:33;100234.00;;;4.75;100.00
78990;BME280;68390;52.130;21.218;2024-03-02T05:41:59;100237.44;;;4.77;100.00
78990;BME280;68390;52.130;21.218;2024-03-02T05:44:24;100231.00;;;4.78;100.00
78990;BME280;68390;52.130;21.218;2024-03-02T05:46:50;100238.03;;;4.80;100.00
78990;BME280;68390;52.130;21.218;2024-03-02T05:49:15;100240.59;;;4.82;100.00
78990;BME280;68390;52.130;21.218;2024-03-02T05:51:41;100244.19;;;4.83;100.00
78990;BME280;68390;52.130;21.218;2024-03-02T05:54:06;100253.22;;;4.83;100.00
78990;BME280;68390;52.130;21.218;2024-03-02T05:56:32;100247.38;;;4.88;100.00
78990;BME280;68390;52.130;21.218;2024-03-02T05:58:58;100260.69;;;4.91;100.00
78990;BME280;68390;52.130;21.218;2024-03-02T06:01:38;100243.50;;;4.90;100.00
78990;BME280;68390;52.130;21.218;2024-03-02T06:04:04;100256.56;;;4.96;100.00
78990;BME280;68390;52.130;21.218;2024-03-02T06:06:30;100252.69;;;4.99;100.00
78990;BME280;68390;52.130;21.218;2024-03-02T06:08:55;100262.44;;;5.01;100.00
78990;BME280;68390;52.130;21.218;2024-03-02T06:11:21;100246.69;;;5.05;100.00
78990;BME280;68390;52.130;21.218;2024-03-02T06:13:47;100245.56;;;5.07;100.00
78990;BME280;68390;52.130;21.218;2024-03-02T06:16:12;100251.56;;;5.11;100.00
78990;BME280;68390;52.130;21.218;2024-03-02T06:18:38;100256.63;;;5.15;100.00
78990;BME280;68390;52.130;21.218;2024-03-02T06:21:04;100264.50;;;5.19;100.00
78990;BME280;68390;52.130;21.218;2024-03-02T06:23:29;100253.63;;;5.19;100.00
78990;BME280;68390;52.130;21.218;2024-03-02T06:25:55;100257.63;;;5.24;100.00
78990;BME280;68390;52.130;21.218;2024-03-02T06:28:20;100267.25;;;5.28;100.00
78990;BME280;68390;52.130;21.218;2024-03-02T06:30:46;100259.78;;;5.30;100.00
78990;BME280;68390;52.130;21.218;2024-03-02T06:33:11;100271.25;;;5.34;100.00
78990;BME280;68390;52.130;21.218;2024-03-02T06:35:37;100267.53;;;5.35;100.00
78990;BME280;68390;52.130;21.218;2024-03-02T06:38:03;100258.50;;;5.34;100.00
78990;BME280;68390;52.130;21.218;2024-03-02T06:40:28;100274.28;;;5.40;100.00
78990;BME280;68390;52.130;21.218;2024-03-02T06:42:54;100279.44;;;5.43;100.00
78990;BME280;68390;52.130;21.218;2024-03-02T06:45:19;100256.06;;;5.41;100.00
78990;BME280;68390;52.130;21.218;2024-03-02T06:47:45;100268.28;;;5.46;100.00
78990;BME280;68390;52.130;21.218;2024-03-02T06:50:10;100267.16;;;5.49;100.00
78990;BME280;68390;52.130;21.218;2024-03-02T06:52:36;100266.16;;;5.50;100.00
78990;BME280;68390;52.130;21.218;2024-03-02T06:55:02;100278.47;;;5.54;100.00
78990;BME280;68390;52.130;21.218;2024-03-02T06:57:30;100277.59;;;5.53;100.00
78990;BME280;68390;52.130;21.218;2024-03-02T06:59:55;100276.47;;;5.56;100.00
78990;BME280;68390;52.130;21.218;2024-03-02T07:02:24;100279.91;;;5.58;100.00
78990;BME280;68390;52.130;21.218;2024-03-02T07:04:50;100280.63;;;5.60;100.00
78990;BME280;68390;52.130;21.218;2024-03-02T07:07:16;100273.28;;;5.61;100.00
78990;BME280;68390;52.130;21.218;2024-03-02T07:09:42;100282.06;;;5.64;100.00
78990;BME280;68390;52.130;21.218;2024-03-02T07:12:07;100284.38;;;5.69;100.00
78990;BME280;68390;52.130;21.218;2024-03-02T07:14:33;100279.19;;;5.75;100.00
78990;BME280;68390;52.130;21.218;2024-03-02T07:17:37;100277.94;;;5.79;100.00
78990;BME280;68390;52.130;21.218;2024-03-02T07:20:02;100283.06;;;5.82;100.00
78990;BME280;68390;52.130;21.218;2024-03-02T07:22:32;100282.78;;;5.85;100.00
78990;BME280;68390;52.130;21.218;2024-03-02T07:24:58;100264.56;;;5.86;100.00
78990;BME280;68390;52.130;21.218;2024-03-02T07:27:23;100281.97;;;5.95;100.00
78990;BME280;68390;52.130;21.218;2024-03-02T07:29:49;100273.78;;;5.95;100.00
78990;BME280;68390;52.130;21.218;2024-03-02T07:32:14;100286.84;;;6.01;100.00
78990;BME280;68390;52.130;21.218;2024-03-02T07:34:40;100284.69;;;6.04;100.00
78990;BME280;68390;52.130;21.218;2024-03-02T07:37:05;100283.41;;;6.08;100.00
78990;BME280;68390;52.130;21.218;2024-03-02T07:39:31;100285.25;;;6.08;100.00
78990;BME280;68390;52.130;21.218;2024-03-02T07:41:57;100293.03;;;6.12;100.00
78990;BME280;68390;52.130;21.218;2024-03-02T07:44:22;100290.69;;;6.17;100.00
78990;BME280;68390;52.130;21.218;2024-03-02T07:46:48;100286.69;;;6.21;100.00
78990;BME280;68390;52.130;21.218;2024-03-02T07:49:17;100291.56;;;6.28;100.00
78990;BME280;68390;52.130;21.218;2024-03-02T07:51:43;100288.81;;;6.28;100.00
78990;BME280;68390;52.130;21.218;2024-03-02T07:54:08;100305.91;;;6.30;100.00
78990;BME280;68390;52.130;21.218;2024-03-02T07:56:34;100307.06;;;6.27;100.00
78990;BME280;68390;52.130;21.218;2024-03-02T07:59:01;100303.31;;;6.28;100.00
78990;BME280;68390;52.130;21.218;2024-03-02T08:01:28;100298.00;;;6.26;100.00
78990;BME280;68390;52.130;21.218;2024-03-02T08:03:56;100308.50;;;6.31;100.00
78990;BME280;68390;52.130;21.218;2024-03-02T08:06:26;100308.34;;;6.33;100.00
78990;BME280;68390;52.130;21.218;2024-03-02T08:08:55;100307.03;;;6.37;100.00
78990;BME280;68390;52.130;21.218;2024-03-02T08:11:21;100309.34;;;6.41;100.00
78990;BME280;68390;52.130;21.218;2024-03-02T08:13:47;100308.34;;;6.42;100.00
78990;BME280;68390;52.130;21.218;2024-03-02T08:16:14;100298.13;;;6.44;100.00
78990;BME280;68390;52.130;21.218;2024-03-02T08:18:40;100297.09;;;6.45;100.00
78990;BME280;68390;52.130;21.218;2024-03-02T08:21:05;100306.28;;;6.44;100.00
78990;BME280;68390;52.130;21.218;2024-03-02T08:23:34;100309.03;;;6.44;100.00
78990;BME280;68390;52.130;21.218;2024-03-02T08:25:59;100305.28;;;6.45;100.00
78990;BME280;68390;52.130;21.218;2024-03-02T08:28:25;100303.56;;;6.54;100.00
78990;BME280;68390;52.130;21.218;2024-03-02T08:30:50;100299.38;;;6.59;100.00
78990;BME280;68390;52.130;21.218;2024-03-02T08:33:16;100303.84;;;6.60;100.00
78990;BME280;68390;52.130;21.218;2024-03-02T08:35:41;100305.56;;;6.61;100.00
78990;BME280;68390;52.130;21.218;2024-03-02T08:38:07;100304.97;;;6.68;100.00
78990;BME280;68390;52.130;21.218;2024-03-02T08:40:32;100302.38;;;6.66;100.00
78990;BME280;68390;52.130;21.218;2024-03-02T08:42:58;100308.41;;;6.70;100.00
78990;BME280;68390;52.130;21.218;2024-03-02T08:45:23;100307.25;;;6.72;100.00
78990;BME280;68390;52.130;21.218;2024-03-02T08:47:49;100311.84;;;6.72;100.00
78990;BME280;68390;52.130;21.218;2024-03-02T08:50:14;100310.84;;;6.73;100.00
78990;BME280;68390;52.130;21.218;2024-03-02T08:52:40;100313.00;;;6.69;100.00
78990;BME280;68390;52.130;21.218;2024-03-02T08:55:06;100321.91;;;6.71;100.00
78990;BME280;68390;52.130;21.218;2024-03-02T08:57:33;100321.91;;;6.71;100.00
78990;BME280;68390;52.130;21.218;2024-03-02T08:59:59;100325.63;;;6.70;100.00
78990;BME280;68390;52.130;21.218;2024-03-02T09:02:25;100319.91;;;6.73;100.00
78990;BME280;68390;52.130;21.218;2024-03-02T09:04:50;100328.78;;;6.75;100.00
78990;BME280;68390;52.130;21.218;2024-03-02T09:07:16;100317.03;;;6.75;100.00
78990;BME280;68390;52.130;21.218;2024-03-02T09:09:41;100319.16;;;6.81;100.00
78990;BME280;68390;52.130;21.218;2024-03-02T09:12:07;100325.00;;;6.86;100.00
78990;BME280;68390;52.130;21.218;2024-03-02T09:14:33;100323.00;;;6.88;100.00
78990;BME280;68390;52.130;21.218;2024-03-02T09:17:00;100314.50;;;6.91;100.00
78990;BME280;68390;52.130;21.218;2024-03-02T09:19:25;100326.16;;;6.93;100.00
78990;BME280;68390;52.130;21.218;2024-03-02T09:21:50;100325.53;;;6.99;100.00
78990;BME280;68390;52.130;21.218;2024-03-02T09:24:16;100318.94;;;7.02;100.00
78990;BME280;68390;52.130;21.218;2024-03-02T09:26:41;100318.47;;;7.06;100.00
78990;BME280;68390;52.130;21.218;2024-03-02T09:29:07;100312.72;;;7.09;100.00
78990;BME280;68390;52.130;21.218;2024-03-02T09:31:32;100319.13;;;7.18;100.00
78990;BME280;68390;52.130;21.218;2024-03-02T09:33:57;100325.88;;;7.23;100.00
78990;BME280;68390;52.130;21.218;2024-03-02T09:36:23;100322.53;;;7.29;100.00
78990;BME280;68390;52.130;21.218;2024-03-02T09:38:48;100318.03;;;7.38;100.00
78990;BME280;68390;52.130;21.218;2024-03-02T09:41:15;100323.63;;;7.46;100.00
78990;BME280;68390;52.130;21.218;2024-03-02T09:43:40;100316.38;;;7.55;100.00
78990;BME280;68390;52.130;21.218;2024-03-02T09:46:08;100322.94;;;7.62;100.00
78990;BME280;68390;52.130;21.218;2024-03-02T09:48:34;100310.84;;;7.64;100.00
78990;BME280;68390;52.130;21.218;2024-03-02T09:51:00;100318.56;;;7.69;100.00
78990;BME280;68390;52.130;21.218;2024-03-02T09:53:31;100325.28;;;7.74;100.00
78990;BME280;68390;52.130;21.218;2024-03-02T09:55:56;100326.31;;;7.73;100.00
78990;BME280;68390;52.130;21.218;2024-03-02T09:58:22;100323.50;;;7.83;100.00
78990;BME280;68390;52.130;21.218;2024-03-02T10:00:47;100317.88;;;7.85;100.00
78990;BME280;68390;52.130;21.218;2024-03-02T10:03:14;100311.25;;;7.87;100.00
78990;BME280;68390;52.130;21.218;2024-03-02T10:05:40;100306.47;;;7.89;100.00
78990;BME280;68390;52.130;21.218;2024-03-02T10:08:06;100312.91;;;7.98;100.00
78990;BME280;68390;52.130;21.218;2024-03-02T10:13:04;100297.88;;;8.02;100.00
78990;BME280;68390;52.130;21.218;2024-03-02T10:15:30;100302.03;;;8.06;100.00
78990;BME280;68390;52.130;21.218;2024-03-02T10:17:56;100301.19;;;8.05;100.00
78990;BME280;68390;52.130;21.218;2024-03-02T10:20:25;100300.69;;;8.10;100.00
78990;BME280;68390;52.130;21.218;2024-03-02T10:22:51;100299.53;;;8.13;100.00
78990;BME280;68390;52.130;21.218;2024-03-02T10:25:32;100289.84;;;8.18;100.00
78990;BME280;68390;52.130;21.218;2024-03-02T10:27:59;100292.44;;;8.20;100.00
78990;BME280;68390;52.130;21.218;2024-03-02T10:30:30;100291.78;;;8.26;100.00
78990;BME280;68390;52.130;21.218;2024-03-02T10:32:55;100282.34;;;8.38;100.00
78990;BME280;68390;52.130;21.218;2024-03-02T10:35:24;100289.28;;;8.50;100.00
78990;BME280;68390;52.130;21.218;2024-03-02T10:37:51;100292.06;;;8.58;100.00
78990;BME280;68390;52.130;21.218;2024-03-02T10:40:18;100290.25;;;8.67;100.00
78990;BME280;68390;52.130;21.218;2024-03-02T10:42:45;100284.81;;;8.75;100.00
78990;BME280;68390;52.130;21.218;2024-03-02T10:45:12;100279.56;;;8.81;100.00
78990;BME280;68390;52.130;21.218;2024-03-02T10:47:41;100286.41;;;8.86;100.00
78990;BME280;68390;52.130;21.218;2024-03-02T10:50:07;100283.72;;;8.94;100.00
78990;BME280;68390;52.130;21.218;2024-03-02T10:52:37;100283.78;;;9.02;100.00
78990;BME280;68390;52.130;21.218;2024-03-02T10:55:02;100285.16;;;9.06;100.00
78990;BME280;68390;52.130;21.218;2024-03-02T11:00:13;100283.28;;;9.06;100.00
78990;BME280;68390;52.130;21.218;2024-03-02T11:03:05;100287.91;;;9.06;100.00
78990;BME280;68390;52.130;21.218;2024-03-02T11:05:43;100283.81;;;9.10;100.00
78990;BME280;68390;52.130;21.218;2024-03-02T11:08:14;100281.13;;;9.18;100.00
78990;BME280;68390;52.130;21.218;2024-03-02T11:10:48;100278.56;;;9.25;100.00
78990;BME280;68390;52.130;21.218;2024-03-02T11:13:17;100274.16;;;9.32;100.00
78990;BME280;68390;52.130;21.218;2024-03-02T11:15:46;100272.63;;;9.37;100.00
78990;BME280;68390;52.130;21.218;2024-03-02T11:18:12;100265.81;;;9.41;100.00
78990;BME280;68390;52.130;21.218;2024-03-02T11:20:40;100267.53;;;9.42;100.00
78990;BME280;68390;52.130;21.218;2024-03-02T11:23:07;100260.81;;;9.45;100.00
78990;BME280;68390;52.130;21.218;2024-03-02T11:25:33;100269.25;;;9.43;100.00
78990;BME280;68390;52.130;21.218;2024-03-02T11:28:00;100267.16;;;9.45;100.00
78990;BME280;68390;52.130;21.218;2024-03-02T11:33:02;100258.81;;;9.55;100.00
78990;BME280;68390;52.130;21.218;2024-03-02T11:35:37;100252.50;;;9.63;100.00
78990;BME280;68390;52.130;21.218;2024-03-02T11:38:03;100254.88;;;9.66;100.00
78990;BME280;68390;52.130;21.218;2024-03-02T11:40:30;100254.88;;;9.66;100.00
78990;BME280;68390;52.130;21.218;2024-03-02T11:43:05;100248.56;;;9.65;100.00
78990;BME280;68390;52.130;21.218;2024-03-02T11:45:31;100233.63;;;9.68;100.00
78990;BME280;68390;52.130;21.218;2024-03-02T11:47:59;100234.00;;;9.73;100.00
78990;BME280;68390;52.130;21.218;2024-03-02T11:50:52;100228.34;;;9.74;100.00
78990;BME280;68390;52.130;21.218;2024-03-02T11:53:18;100220.13;;;9.74;100.00
78990;BME280;68390;52.130;21.218;2024-03-02T11:55:45;100221.00;;;9.83;100.00
78990;BME280;68390;52.130;21.218;2024-03-02T11:58:13;100236.25;;;9.93;100.00
78990;BME280;68390;52.130;21.218;2024-03-02T12:00:39;100236.94;;;9.96;100.00
78990;BME280;68390;52.130;21.218;2024-03-02T12:03:09;100243.47;;;10.03;100.00
78990;BME280;68390;52.130;21.218;2024-03-02T12:05:37;100247.91;;;10.04;100.00
78990;BME280;68390;52.130;21.218;2024-03-02T12:08:04;100254.25;;;10.12;100.00
78990;BME280;68390;52.130;21.218;2024-03-02T12:10:31;100253.94;;;10.15;100.00
78990;BME280;68390;52.130;21.218;2024-03-02T12:15:27;100254.25;;;10.12;100.00
78990;BME280;68390;52.130;21.218;2024-03-02T12:17:54;100257.19;;;10.19;100.00
78990;BME280;68390;52.130;21.218;2024-03-02T12:20:21;100242.63;;;10.18;100.00
78990;BME280;68390;52.130;21.218;2024-03-02T12:22:58;100257.03;;;10.20;100.00
78990;BME280;68390;52.130;21.218;2024-03-02T12:25:25;100257.53;;;10.16;100.00
78990;BME280;68390;52.130;21.218;2024-03-02T12:27:53;100252.22;;;10.06;100.00
78990;BME280;68390;52.130;21.218;2024-03-02T12:30:19;100260.25;;;10.08;100.00
78990;BME280;68390;52.130;21.218;2024-03-02T12:32:45;100258.56;;;10.07;100.00
78990;BME280;68390;52.130;21.218;2024-03-02T12:35:11;100253.75;;;10.09;100.00
78990;BME280;68390;52.130;21.218;2024-03-02T12:37:58;100251.16;;;10.07;100.00
78990;BME280;68390;52.130;21.218;2024-03-02T12:40:24;100256.00;;;10.05;100.00
78990;BME280;68390;52.130;21.218;2024-03-02T12:42:50;100256.81;;;9.98;100.00
78990;BME280;68390;52.130;21.218;2024-03-02T12:45:16;100259.75;;;9.96;100.00
78990;BME280;68390;52.130;21.218;2024-03-02T12:47:48;100254.06;;;9.89;100.00
78990;BME280;68390;52.130;21.218;2024-03-02T12:50:14;100255.63;;;9.84;100.00
78990;BME280;68390;52.130;21.218;2024-03-02T12:52:40;100252.19;;;9.82;100.00